createdAt,value
2023-03-29T00:01:57.368Z,89.30
2023-03-29T00:04:29.867Z,86.60
2023-03-29T00:07:05.224Z,86.80
2023-03-29T00:09:34.483Z,79.50
2023-03-29T00:12:05.001Z,80.10
2023-03-29T00:15:07.224Z,89.30
2023-03-29T00:17:40.135Z,260.60
2023-03-29T00:20:18.006Z,132.80
2023-03-29T00:22:52.923Z,103.70
2023-03-29T00:25:22.875Z,108.20
2023-03-29T00:28:04.876Z,106.60
2023-03-29T00:30:37.951Z,117.60
2023-03-29T00:33:11.720Z,107.10
2023-03-29T00:35:43.306Z,90.30
2023-03-29T00:38:16.179Z,88.90
2023-03-29T00:40:52.327Z,77.30
2023-03-29T00:43:27.692Z,85.80
2023-03-29T00:46:03.278Z,75.70
2023-03-29T00:48:36.304Z,83.30
2023-03-29T00:51:21.549Z,82.10
2023-03-29T00:54:06.707Z,81.70
2023-03-29T00:56:53.373Z,86.10
2023-03-29T00:59:33.117Z,85.00
2023-03-29T01:02:09.733Z,79.70
2023-03-29T01:04:58.470Z,82.80
2023-03-29T01:07:38.436Z,78.50
2023-03-29T01:10:28.890Z,78.40
2023-03-29T01:13:13.692Z,83.80
2023-03-29T01:15:47.478Z,77.40
2023-03-29T01:18:25.856Z,74.80
2023-03-29T01:21:11.495Z,81.90
2023-03-29T01:24:07.427Z,79.70
2023-03-29T01:27:03.722Z,77.00
2023-03-29T01:29:45.008Z,72.70
2023-03-29T01:32:38.678Z,83.20
2023-03-29T01:35:31.368Z,82.50
2023-03-29T01:38:44.280Z,77.80
2023-03-29T01:41:23.179Z,73.40
2023-03-29T01:44:10.669Z,77.50
2023-03-29T01:47:00.722Z,72.60
2023-03-29T01:49:44.265Z,77.40
2023-03-29T01:52:37.322Z,77.80
2023-03-29T01:55:23.033Z,75.80
2023-03-29T01:58:00.087Z,83.60
2023-03-29T02:00:37.762Z,76.30
2023-03-29T02:03:19.605Z,73.60
2023-03-29T02:05:58.394Z,78.30
2023-03-29T02:08:37.409Z,75.10
2023-03-29T02:11:22.255Z,70.70
2023-03-29T02:13:57.269Z,69.70
2023-03-29T02:16:46.780Z,66.50
2023-03-29T02:19:25.792Z,70.30
2023-03-29T02:22:11.030Z,70.90
2023-03-29T02:24:54.000Z,70.50
2023-03-29T02:27:30.282Z,70.90
2023-03-29T02:30:02.713Z,67.90
2023-03-29T02:33:18.394Z,71.20
2023-03-29T02:36:52.250Z,77.10
2023-03-29T02:39:33.289Z,69.40
2023-03-29T02:42:36.836Z,72.50
2023-03-29T02:45:18.448Z,86.40
2023-03-29T02:47:57.086Z,82.70
2023-03-29T02:50:56.780Z,80.30
2023-03-29T02:53:47.044Z,75.10
2023-03-29T02:56:27.999Z,83.20
2023-03-29T02:59:09.743Z,92.50
2023-03-29T03:01:45.858Z,97.20
2023-03-29T03:04:21.180Z,85.40
2023-03-29T03:06:56.975Z,82.80
2023-03-29T03:09:32.162Z,104.40
2023-03-29T03:12:04.678Z,83.70
2023-03-29T03:14:36.761Z,83.60
2023-03-29T03:17:07.816Z,83.00
2023-03-29T03:19:47.975Z,75.30
2023-03-29T03:22:24.613Z,84.00
2023-03-29T03:25:02.458Z,82.10
2023-03-29T03:27:38.593Z,83.50
2023-03-29T03:30:18.134Z,77.50
2023-03-29T03:33:27.274Z,75.20
2023-03-29T03:36:35.188Z,76.90
2023-03-29T03:39:08.598Z,72.60
2023-03-29T03:41:46.500Z,87.30
2023-03-29T03:44:33.558Z,81.10
2023-03-29T03:47:23.516Z,69.80
2023-03-29T03:49:54.486Z,66.40
2023-03-29T03:52:33.813Z,68.20
2023-03-29T03:55:09.151Z,61.40
2023-03-29T03:57:49.917Z,62.30
2023-03-29T04:00:22.595Z,95.70
2023-03-29T04:02:59.613Z,207.40
2023-03-29T04:05:34.818Z,339.70
2023-03-29T04:08:07.882Z,250.90
2023-03-29T04:10:58.677Z,175.60
2023-03-29T04:13:39.069Z,198.00
2023-03-29T04:16:32.571Z,127.80
2023-03-29T04:19:13.178Z,178.80
2023-03-29T04:21:46.116Z,129.50
2023-03-29T04:24:17.610Z,173.20
2023-03-29T04:26:56.806Z,261.00
2023-03-29T04:29:35.908Z,237.40
2023-03-29T04:32:22.749Z,166.90
2023-03-29T04:35:06.936Z,158.10
2023-03-29T04:37:45.291Z,145.20
2023-03-29T04:40:20.839Z,321.30
2023-03-29T04:43:06.578Z,372.30
2023-03-29T04:45:43.388Z,309.90
2023-03-29T04:48:21.151Z,251.50
2023-03-29T04:51:03.647Z,192.20
2023-03-29T04:53:43.210Z,126.20
2023-03-29T04:56:17.814Z,90.80
2023-03-29T04:59:17.321Z,64.40
2023-03-29T05:01:48.069Z,111.90
2023-03-29T05:04:22.284Z,93.70
2023-03-29T05:07:23.778Z,76.00
2023-03-29T05:10:10.893Z,61.70
2023-03-29T05:13:03.259Z,60.70
2023-03-29T05:15:46.682Z,66.10
2023-03-29T05:18:18.680Z,59.90
2023-03-29T05:20:56.144Z,53.50
2023-03-29T05:23:31.320Z,58.90
2023-03-29T05:26:15.588Z,57.40
2023-03-29T05:28:59.015Z,61.40
2023-03-29T05:31:32.915Z,57.00
2023-03-29T05:34:10.331Z,56.90
2023-03-29T05:36:53.700Z,49.40
2023-03-29T05:39:29.412Z,56.50
2023-03-29T05:42:03.540Z,48.20
2023-03-29T05:44:47.834Z,76.00
2023-03-29T05:47:28.975Z,76.20
2023-03-29T05:50:10.803Z,53.50
2023-03-29T05:52:49.992Z,58.60
2023-03-29T05:55:25.777Z,55.90
2023-03-29T05:57:58.773Z,58.50
2023-03-29T06:00:34.873Z,55.90
2023-03-29T06:03:25.650Z,66.70
2023-03-29T06:06:20.629Z,58.90
2023-03-29T06:08:54.135Z,51.50
2023-03-29T06:11:41.259Z,55.60
2023-03-29T06:14:35.986Z,48.90
2023-03-29T06:17:39.963Z,48.70
2023-03-29T06:20:17.431Z,42.60
2023-03-29T06:22:52.896Z,73.30
2023-03-29T06:25:26.117Z,51.60
2023-03-29T06:28:01.627Z,85.80
2023-03-29T06:30:35.274Z,71.10
2023-03-29T06:33:11.728Z,58.70
2023-03-29T06:36:14.114Z,53.50
2023-03-29T06:38:46.346Z,59.20
2023-03-29T06:41:30.639Z,60.50
2023-03-29T06:44:20.231Z,54.20
2023-03-29T06:47:02.184Z,51.10
2023-03-29T06:49:37.531Z,48.70
2023-03-29T06:52:23.103Z,44.00
2023-03-29T06:54:57.546Z,41.60
2023-03-29T06:57:36.620Z,45.20
2023-03-29T07:00:32.515Z,40.20
2023-03-29T07:03:20.404Z,34.60
2023-03-29T07:06:16.607Z,37.60
2023-03-29T07:08:54.603Z,37.20
2023-03-29T07:11:40.539Z,40.40
2023-03-29T07:14:31.536Z,32.40
2023-03-29T07:17:12.263Z,31.30
2023-03-29T07:19:55.135Z,28.20
2023-03-29T07:23:10.837Z,29.60
2023-03-29T07:26:00.523Z,25.60
2023-03-29T07:28:40.864Z,28.20
2023-03-29T07:31:28.281Z,31.90
2023-03-29T07:34:08.707Z,26.70
2023-03-29T07:37:04.090Z,29.60
2023-03-29T07:39:45.465Z,24.20
2023-03-29T07:42:43.675Z,26.80
2023-03-29T07:45:30.046Z,23.00
2023-03-29T07:48:35.487Z,23.90
2023-03-29T07:51:17.170Z,24.60
2023-03-29T07:54:16.158Z,23.60
2023-03-29T07:57:27.588Z,28.00
2023-03-29T08:00:22.458Z,25.20
2023-03-29T08:03:30.355Z,24.40
2023-03-29T08:06:11.831Z,22.30
2023-03-29T08:09:02.242Z,23.30
2023-03-29T08:11:43.414Z,19.40
2023-03-29T08:14:38.112Z,20.20
2023-03-29T08:17:40.162Z,18.40
2023-03-29T08:20:40.685Z,21.90
2023-03-29T08:23:14.447Z,26.30
2023-03-29T08:26:23.964Z,17.90
2023-03-29T08:28:57.680Z,14.80
2023-03-29T08:31:29.684Z,18.00
2023-03-29T08:34:03.804Z,17.20
2023-03-29T08:37:01.115Z,18.90
2023-03-29T08:39:42.125Z,16.90
2023-03-29T08:43:04.355Z,19.80
2023-03-29T08:46:16.753Z,17.10
2023-03-29T08:49:07.586Z,15.40
2023-03-29T08:51:53.482Z,13.50
2023-03-29T08:54:49.073Z,9.50
2023-03-29T08:57:48.339Z,9.00
2023-03-29T09:00:43.487Z,10.30
2023-03-29T09:03:31.880Z,9.60
2023-03-29T09:06:18.494Z,10.40
2023-03-29T09:09:00.796Z,7.90
2023-03-29T09:11:51.068Z,9.50
2023-03-29T09:14:30.647Z,10.90
2023-03-29T09:17:31.975Z,8.80
2023-03-29T09:20:24.060Z,6.10
2023-03-29T09:23:47.899Z,7.40
2023-03-29T09:30:56.845Z,5.00
2023-03-29T09:34:10.586Z,7.40
2023-03-29T09:37:21.733Z,9.70
2023-03-29T09:40:04.649Z,6.10
2023-03-29T09:42:55.552Z,9.20
2023-03-29T09:45:53.376Z,6.30
2023-03-29T09:48:41.278Z,6.90
2023-03-29T09:51:18.127Z,5.80
2023-03-29T09:53:50.396Z,6.00
2023-03-29T09:56:47.116Z,14.20
2023-03-29T09:59:25.324Z,5.10
2023-03-29T10:02:14.942Z,8.40
2023-03-29T10:04:48.389Z,11.90
2023-03-29T10:07:21.045Z,5.10
2023-03-29T10:09:57.882Z,7.70
2023-03-29T10:12:37.236Z,12.70
2023-03-29T10:15:26.612Z,6.40
2023-03-29T10:18:15.056Z,6.90
2023-03-29T10:20:48.421Z,8.00
2023-03-29T10:23:22.368Z,4.30
2023-03-29T10:26:04.577Z,5.60
2023-03-29T10:28:40.515Z,7.90
2023-03-29T10:31:25.899Z,6.30
2023-03-29T10:34:11.950Z,6.10
2023-03-29T10:36:50.617Z,4.90
2023-03-29T10:39:20.929Z,6.30
2023-03-29T10:41:53.513Z,6.00
2023-03-29T10:44:36.914Z,12.60
2023-03-29T10:47:29.130Z,7.80
2023-03-29T10:49:59.249Z,12.70
2023-03-29T10:52:30.410Z,6.40
2023-03-29T10:55:02.819Z,5.40
2023-03-29T10:58:16.619Z,10.30
2023-03-29T11:01:00.752Z,8.40
2023-03-29T11:04:17.454Z,6.60
2023-03-29T11:07:26.544Z,11.30
2023-03-29T11:10:34.793Z,7.00
2023-03-29T11:13:34.788Z,11.30
2023-03-29T11:16:58.255Z,7.40
2023-03-29T11:20:17.857Z,12.50
2023-03-29T11:23:16.650Z,9.30
2023-03-29T11:26:23.846Z,5.20
2023-03-29T11:29:11.796Z,7.90
2023-03-29T11:32:28.095Z,6.40
2023-03-29T11:35:29.739Z,10.00
2023-03-29T11:38:47.910Z,9.70
2023-03-29T11:41:44.376Z,7.30
2023-03-29T11:44:40.143Z,8.40
2023-03-29T11:47:35.404Z,7.20
2023-03-29T11:50:59.529Z,9.50
2023-03-29T11:53:52.236Z,4.90
2023-03-29T11:57:07.037Z,8.40
2023-03-29T12:05:50.549Z,8.90
2023-03-29T12:08:47.531Z,5.40
2023-03-29T12:11:49.094Z,9.60
2023-03-29T12:14:30.144Z,7.70
2023-03-29T12:17:10.830Z,8.90
2023-03-29T12:28:12.196Z,7.50
2023-03-29T12:31:06.611Z,11.50
2023-03-29T12:38:10.289Z,8.50
2023-03-29T12:41:25.653Z,9.50
2023-03-29T12:44:32.329Z,6.60
2023-03-29T12:47:34.681Z,11.90
2023-03-29T12:50:32.387Z,7.50
2023-03-29T12:53:27.893Z,6.20
2023-03-29T12:56:04.793Z,8.10
2023-03-29T12:58:43.527Z,8.70
2023-03-29T13:01:37.917Z,8.50
2023-03-29T13:04:21.709Z,6.90
2023-03-29T13:07:09.034Z,12.00
2023-03-29T13:10:08.365Z,8.80
2023-03-29T13:12:51.608Z,9.20
2023-03-29T13:15:41.766Z,7.70
2023-03-29T13:19:18.636Z,14.20
2023-03-29T13:22:08.686Z,13.90
2023-03-29T13:25:41.773Z,13.90
2023-03-29T13:28:47.480Z,16.30
2023-03-29T13:31:35.789Z,12.30
2023-03-29T13:34:20.725Z,14.10
2023-03-29T13:37:21.361Z,13.30
2023-03-29T13:39:56.937Z,11.00
2023-03-29T13:42:46.751Z,14.70
2023-03-29T13:45:33.206Z,11.30
2023-03-29T13:48:34.302Z,8.20
2023-03-29T13:51:35.549Z,15.40
2023-03-29T13:54:43.089Z,11.20
2023-03-29T13:58:02.102Z,8.60
2023-03-29T14:00:54.520Z,7.90
2023-03-29T14:03:50.263Z,7.30
2023-03-29T14:06:35.059Z,16.60
2023-03-29T14:09:09.715Z,10.80
2023-03-29T14:12:08.315Z,7.40
2023-03-29T14:14:51.709Z,8.70
2023-03-29T14:17:37.313Z,6.70
2023-03-29T14:20:10.297Z,9.40
2023-03-29T14:23:03.133Z,10.20
2023-03-29T14:26:09.130Z,12.70
2023-03-29T14:29:07.819Z,10.60
2023-03-29T14:31:52.374Z,10.30
2023-03-29T14:34:39.822Z,8.60
2023-03-29T14:37:37.524Z,8.50
2023-03-29T14:40:45.627Z,7.00
2023-03-29T14:43:39.993Z,16.90
2023-03-29T14:46:49.024Z,11.10
2023-03-29T14:50:05.462Z,8.60
2023-03-29T14:52:52.629Z,10.60
2023-03-29T14:55:56.401Z,17.20
2023-03-29T14:58:46.878Z,10.10
2023-03-29T15:01:49.021Z,15.80
2023-03-29T15:04:36.556Z,10.90
2023-03-29T15:09:07.251Z,14.40
2023-03-29T15:11:42.598Z,11.60
2023-03-29T15:15:04.235Z,12.40
2023-03-29T15:17:56.973Z,10.90
2023-03-29T15:21:07.732Z,10.80
2023-03-29T15:24:07.821Z,10.30
2023-03-29T15:27:03.364Z,11.30
2023-03-29T15:29:51.768Z,13.20
2023-03-29T15:32:55.040Z,12.60
2023-03-29T15:36:03.691Z,10.20
2023-03-29T15:39:05.929Z,13.30
2023-03-29T15:47:36.814Z,14.50
2023-03-29T15:50:31.750Z,15.90
2023-03-29T15:53:19.432Z,17.40
2023-03-29T15:57:31.467Z,24.00
2023-03-29T16:00:44.710Z,18.10
2023-03-29T16:03:55.459Z,19.70
2023-03-29T16:06:53.339Z,39.90
2023-03-29T16:09:30.244Z,32.00
2023-03-29T16:12:23.738Z,27.10
2023-03-29T16:15:01.053Z,22.80
2023-03-29T16:17:52.416Z,23.80
2023-03-29T16:21:17.640Z,20.10
2023-03-29T16:24:17.483Z,16.30
2023-03-29T16:26:56.992Z,15.00
2023-03-29T16:29:41.036Z,19.00
2023-03-29T16:36:10.759Z,15.50
2023-03-29T16:38:54.400Z,18.70
2023-03-29T16:41:39.514Z,19.50
2023-03-29T16:45:01.252Z,17.00
2023-03-29T16:48:09.993Z,16.80
2023-03-29T16:50:55.956Z,20.60
2023-03-29T16:54:43.903Z,27.90
2023-03-29T16:57:53.243Z,33.80
2023-03-29T17:03:36.915Z,35.00
2023-03-29T17:06:50.014Z,27.30
2023-03-29T17:09:32.771Z,26.50
2023-03-29T17:12:18.931Z,28.00
2023-03-29T17:18:03.220Z,35.30
2023-03-29T17:21:25.118Z,43.10
2023-03-29T17:24:14.827Z,41.30
2023-03-29T17:27:34.535Z,47.90
2023-03-29T17:30:22.589Z,52.10
2023-03-29T17:33:11.133Z,45.90
2023-03-29T17:39:45.542Z,39.10
2023-03-29T17:42:30.136Z,43.20
2023-03-29T17:45:29.879Z,35.90
2023-03-29T17:48:26.157Z,32.20
2023-03-29T17:51:26.603Z,32.70
2023-03-29T17:55:17.013Z,29.90
2023-03-29T18:01:54.765Z,37.10
2023-03-29T18:05:08.499Z,34.40
2023-03-29T18:09:48.429Z,35.50
2023-03-29T18:13:27.235Z,39.80
2023-03-29T18:33:46.070Z,47.60
2023-03-29T18:43:38.758Z,66.80
2023-03-29T18:50:25.563Z,74.80
2023-03-29T18:53:22.567Z,73.40
2023-03-29T18:56:17.959Z,88.00
2023-03-29T18:59:11.726Z,83.50
2023-03-29T19:02:57.895Z,78.80
2023-03-29T19:06:04.173Z,71.30
2023-03-29T19:09:02.375Z,58.20
2023-03-29T19:13:07.527Z,56.00
2023-03-29T19:16:12.424Z,56.20
2023-03-29T19:19:12.594Z,53.50
2023-03-29T19:22:40.347Z,47.10
2023-03-29T19:25:44.633Z,47.80
2023-03-29T19:28:38.597Z,44.30
2023-03-29T19:31:42.108Z,48.20
2023-03-29T19:34:41.061Z,61.70
2023-03-29T19:37:57.883Z,50.50
2023-03-29T19:41:29.816Z,62.70
2023-03-29T19:44:40.708Z,58.10
2023-03-29T19:48:21.791Z,55.10
2023-03-29T19:51:40.718Z,50.70
2023-03-29T19:54:51.186Z,47.50
2023-03-29T19:57:45.557Z,35.30
2023-03-29T20:04:13.456Z,42.20
2023-03-29T20:07:54.756Z,40.30
2023-03-29T20:11:52.833Z,60.60
2023-03-29T20:15:53.710Z,54.00
2023-03-29T20:27:06.533Z,77.10
2023-03-29T20:33:20.391Z,96.60
2023-03-29T20:36:20.444Z,102.30
2023-03-29T20:39:04.948Z,121.50
2023-03-29T20:42:04.249Z,103.80
2023-03-29T20:45:27.526Z,80.80
2023-03-29T20:48:14.503Z,79.00
2023-03-29T20:50:59.822Z,71.30
2023-03-29T20:53:58.904Z,55.00
2023-03-29T20:56:42.971Z,50.00
2023-03-29T20:59:39.676Z,39.40
2023-03-29T21:02:23.380Z,37.00
2023-03-29T21:05:22.751Z,34.20
2023-03-29T21:08:18.282Z,33.40
2023-03-29T21:11:15.934Z,30.80
2023-03-29T21:14:07.932Z,32.10
2023-03-29T21:17:02.587Z,35.20
2023-03-29T21:19:53.465Z,30.30
2023-03-29T21:22:34.820Z,27.30
2023-03-29T21:25:28.268Z,26.40
2023-03-29T21:28:23.622Z,29.10
2023-03-29T21:31:17.697Z,28.10
2023-03-29T21:34:30.960Z,40.00
2023-03-29T21:37:16.342Z,33.20
2023-03-29T21:40:28.734Z,26.30
2023-03-29T21:43:25.409Z,28.00
2023-03-29T21:46:26.808Z,26.50
2023-03-29T21:52:21.015Z,32.40
2023-03-29T21:55:12.734Z,24.10
2023-03-29T21:58:02.849Z,25.30
2023-03-29T22:00:44.037Z,26.70
2023-03-29T22:03:28.087Z,27.80
2023-03-29T22:06:28.419Z,37.40
2023-03-29T22:09:16.566Z,30.80
2023-03-29T22:12:07.391Z,31.20
2023-03-29T22:15:05.412Z,34.50
2023-03-29T22:17:53.777Z,30.40
2023-03-29T22:20:42.202Z,30.80
2023-03-29T22:23:33.457Z,25.80
2023-03-29T22:26:26.878Z,25.00
2023-03-29T22:29:16.507Z,25.30
2023-03-29T22:31:58.344Z,23.40
2023-03-29T22:35:00.469Z,26.10
2023-03-29T22:37:56.972Z,25.20
2023-03-29T22:40:46.227Z,28.50
2023-03-29T22:43:25.510Z,24.50
2023-03-29T22:46:20.719Z,26.90
2023-03-29T22:49:01.931Z,27.40
2023-03-29T22:51:52.566Z,27.60
2023-03-29T22:54:49.583Z,28.70
2023-03-29T22:57:43.727Z,29.40
2023-03-29T23:01:02.604Z,27.80
2023-03-29T23:04:01.026Z,31.00
2023-03-29T23:06:48.491Z,29.10
2023-03-29T23:09:57.155Z,21.30
2023-03-29T23:15:47.425Z,27.90
2023-03-29T23:18:21.131Z,26.60
2023-03-29T23:20:54.802Z,21.40
2023-03-29T23:23:25.898Z,22.70
2023-03-29T23:25:56.551Z,19.60
2023-03-29T23:28:30.416Z,21.90
2023-03-29T23:31:03.896Z,19.80
2023-03-29T23:33:36.075Z,24.00
2023-03-29T23:36:23.306Z,26.00
2023-03-29T23:39:11.474Z,25.10
2023-03-29T23:41:58.438Z,24.00
2023-03-29T23:44:51.400Z,26.70
2023-03-29T23:47:34.714Z,32.60
2023-03-29T23:50:36.442Z,36.70
2023-03-29T23:53:21.123Z,34.80
2023-03-29T23:56:17.179Z,38.10
